createdAt,value
2024-04-25T00:03:53.159Z,97605.47
2024-04-25T00:08:59.068Z,97606.38
2024-04-25T00:14:02.349Z,97607.28
2024-04-25T00:19:08.065Z,97597.78
2024-04-25T00:24:14.103Z,97596.94
2024-04-25T00:29:17.328Z,97585.94
2024-04-25T00:34:20.454Z,97589.72
2024-04-25T00:39:26.438Z,97589.06
2024-04-25T00:44:29.552Z,97592.78
2024-04-25T00:49:33.680Z,97577.69
2024-04-25T00:54:39.588Z,97579.56
2024-04-25T00:59:45.210Z,97582.72
2024-04-25T01:04:51.001Z,97580.91
2024-04-25T01:09:56.953Z,97579.00
2024-04-25T01:15:00.187Z,97582.25
2024-04-25T01:20:03.799Z,97573.41
2024-04-25T01:25:10.429Z,97575.84
2024-04-25T01:30:14.062Z,97567.97
2024-04-25T01:35:17.808Z,97576.66
2024-04-25T01:40:23.742Z,97577.28
2024-04-25T01:45:26.874Z,97579.53
2024-04-25T01:50:30.018Z,97583.78
2024-04-25T01:55:36.778Z,97599.97
2024-04-25T02:00:40.024Z,97597.75
2024-04-25T02:05:44.205Z,97590.47
2024-04-25T02:10:50.464Z,97600.19
2024-04-25T02:15:53.512Z,97598.78
2024-04-25T02:20:56.995Z,97588.66
2024-04-25T02:26:03.306Z,97604.56
2024-04-25T02:31:06.438Z,97610.03
2024-04-25T02:36:09.727Z,97601.72
2024-04-25T02:41:15.755Z,97609.81
2024-04-25T02:46:18.936Z,97612.03
2024-04-25T02:51:22.072Z,97620.94
2024-04-25T02:56:28.085Z,97627.03
2024-04-25T03:01:31.214Z,97617.50
2024-04-25T03:06:34.360Z,97611.44
2024-04-25T03:11:40.385Z,97611.03
2024-04-25T03:16:43.579Z,97618.50
2024-04-25T03:21:47.271Z,97617.66
2024-04-25T03:26:53.309Z,97614.22
2024-04-25T03:31:56.398Z,97620.84
2024-04-25T03:36:59.457Z,97624.41
2024-04-25T03:42:05.576Z,97633.28
2024-04-25T03:47:08.801Z,97633.19
2024-04-25T03:52:11.971Z,97618.78
2024-04-25T03:57:17.849Z,97623.56
2024-04-25T04:02:21.083Z,97635.81
2024-04-25T04:07:24.233Z,97623.59
2024-04-25T04:12:30.123Z,97631.72
2024-04-25T04:17:33.316Z,97633.91
2024-04-25T04:22:36.924Z,97631.34
2024-04-25T04:27:42.804Z,97635.59
2024-04-25T04:32:45.967Z,97633.16
2024-04-25T04:37:49.193Z,97628.81
2024-04-25T04:42:55.329Z,97631.25
2024-04-25T04:47:58.459Z,97625.75
2024-04-25T04:53:01.653Z,97624.38
2024-04-25T04:58:07.742Z,97636.19
2024-04-25T05:06:14.827Z,97641.81
2024-04-25T05:11:18.246Z,97647.69
2024-04-25T05:16:21.404Z,97641.56
2024-04-25T05:21:27.376Z,97634.09
2024-04-25T05:26:30.761Z,97627.53
2024-04-25T05:31:33.944Z,97627.69
2024-04-25T05:36:39.856Z,97618.56
2024-04-25T05:41:43.053Z,97620.09
2024-04-25T05:46:46.213Z,97627.25
2024-04-25T05:51:52.144Z,97609.91
2024-04-25T05:56:55.356Z,97613.72
2024-04-25T06:01:58.404Z,97603.84
2024-04-25T06:07:04.551Z,97599.00
2024-04-25T06:12:07.990Z,97599.81
2024-04-25T06:17:12.672Z,97601.59
2024-04-25T06:22:18.900Z,97602.59
2024-04-25T06:27:22.160Z,97595.38
2024-04-25T06:32:26.544Z,97583.22
2024-04-25T06:37:32.709Z,97598.44
2024-04-25T06:42:35.958Z,97588.91
2024-04-25T06:47:39.691Z,97587.03
2024-04-25T06:52:45.668Z,97581.34
2024-04-25T06:57:48.757Z,97576.88
2024-04-25T07:02:52.055Z,97568.66
2024-04-25T07:07:58.553Z,97563.63
2024-04-25T07:13:01.902Z,97563.38
2024-04-25T07:18:05.467Z,97573.84
2024-04-25T07:23:11.747Z,97571.84
2024-04-25T07:28:14.872Z,97554.00
2024-04-25T07:33:18.078Z,97538.28
2024-04-25T07:38:24.178Z,97536.25
2024-04-25T07:43:27.292Z,97530.00
2024-04-25T07:48:30.557Z,97535.25
2024-04-25T07:53:36.665Z,97535.63
2024-04-25T07:58:39.836Z,97536.19
2024-04-25T08:03:43.017Z,97535.38
2024-04-25T08:08:49.336Z,97540.13
2024-04-25T08:13:52.504Z,97535.22
2024-04-25T08:18:56.133Z,97526.28
2024-04-25T08:24:02.189Z,97519.44
2024-04-25T08:29:05.423Z,97519.97
2024-04-25T08:34:08.752Z,97509.44
2024-04-25T08:39:14.771Z,97503.97
2024-04-25T08:44:18.089Z,97517.13
2024-04-25T08:49:22.455Z,97511.88
2024-04-25T08:54:28.663Z,97510.81
2024-04-25T08:59:31.795Z,97500.34
2024-04-25T09:04:35.404Z,97509.06
2024-04-25T09:09:41.515Z,97505.69
2024-04-25T09:14:44.736Z,97499.97
2024-04-25T09:19:47.938Z,97497.44
2024-04-25T09:24:54.123Z,97513.50
2024-04-25T09:29:57.772Z,97508.94
2024-04-25T09:35:03.554Z,97513.19
2024-04-25T09:40:11.603Z,97513.16
2024-04-25T09:45:16.926Z,97517.31
2024-04-25T09:50:27.896Z,97523.53
2024-04-25T09:55:37.059Z,97526.59
2024-04-25T10:00:41.356Z,97559.06
2024-04-25T10:05:45.372Z,97553.22
2024-04-25T10:10:52.214Z,97561.84
2024-04-25T10:15:58.282Z,97555.81
2024-04-25T10:21:03.008Z,97547.38
2024-04-25T10:26:17.501Z,97536.50
2024-04-25T10:31:20.698Z,97544.31
2024-04-25T10:36:29.304Z,97549.84
2024-04-25T10:41:39.819Z,97525.94
2024-04-25T10:46:43.262Z,97509.06
2024-04-25T10:51:46.487Z,97513.63
2024-04-25T10:56:52.480Z,97507.44
2024-04-25T11:01:59.837Z,97472.59
2024-04-25T11:07:06.617Z,97453.84
2024-04-25T11:12:14.040Z,97464.78
2024-04-25T11:17:17.617Z,97459.25
2024-04-25T11:27:29.942Z,97500.31
2024-04-25T11:32:36.579Z,97509.28
2024-04-25T11:37:43.587Z,97517.91
2024-04-25T11:42:49.994Z,97513.50
2024-04-25T11:47:53.347Z,97507.50
2024-04-25T11:52:56.521Z,97512.53
2024-04-25T11:58:02.580Z,97483.88
2024-04-25T12:03:06.462Z,97475.34
2024-04-25T12:08:09.552Z,97468.16
2024-04-25T12:13:15.514Z,97479.53
2024-04-25T12:18:18.738Z,97473.31
2024-04-25T12:23:23.670Z,97480.91
2024-04-25T12:28:32.639Z,97486.75
2024-04-25T12:33:38.131Z,97503.53
2024-04-25T12:38:41.308Z,97497.16
2024-04-25T12:43:47.259Z,97498.44
2024-04-25T12:48:50.546Z,97506.53
2024-04-25T12:53:53.806Z,97496.09
2024-04-25T12:58:59.711Z,97498.44
2024-04-25T13:04:02.938Z,97497.09
2024-04-25T13:09:06.321Z,97494.47
2024-04-25T13:14:12.354Z,97504.28
2024-04-25T13:19:15.823Z,97484.56
2024-04-25T13:24:19.033Z,97482.25
2024-04-25T13:29:25.074Z,97487.81
2024-04-25T13:34:28.419Z,97507.88
2024-04-25T13:39:31.641Z,97503.78
2024-04-25T13:44:37.637Z,97503.28
2024-04-25T13:49:40.747Z,97508.88
2024-04-25T13:54:43.902Z,97517.97
2024-04-25T13:59:49.887Z,97497.63
2024-04-25T14:04:53.147Z,97483.56
2024-04-25T14:09:56.233Z,97507.88
2024-04-25T14:15:02.226Z,97497.44
2024-04-25T14:20:07.628Z,97522.09
2024-04-25T14:25:11.004Z,97550.91
2024-04-25T14:30:17.046Z,97568.88
2024-04-25T14:35:20.330Z,97582.56
2024-04-25T14:40:23.908Z,97585.47
2024-04-25T14:45:29.802Z,97571.59
2024-04-25T14:50:32.996Z,97552.16
2024-04-25T14:55:36.225Z,97550.91
2024-04-25T15:00:42.163Z,97545.16
2024-04-25T15:05:48.347Z,97586.31
2024-04-25T15:10:51.512Z,97576.59
2024-04-25T15:15:57.431Z,97547.88
2024-04-25T15:21:00.922Z,97525.34
2024-04-25T15:26:04.122Z,97509.28
2024-04-25T15:31:10.278Z,97461.13
2024-04-25T15:36:13.410Z,97439.19
2024-04-25T15:41:16.813Z,97400.59
2024-04-25T15:46:23.034Z,97402.44
2024-04-25T15:51:26.117Z,97446.38
2024-04-25T15:56:29.385Z,97459.38
2024-04-25T16:01:35.410Z,97446.06
2024-04-25T16:06:38.601Z,97461.81
2024-04-25T16:11:41.831Z,97437.78
2024-04-25T16:16:47.780Z,97473.59
2024-04-25T16:21:57.359Z,97468.53
2024-04-25T16:27:01.369Z,97424.63
2024-04-25T16:32:08.551Z,97360.03
2024-04-25T16:37:11.674Z,97332.28
2024-04-25T16:42:15.045Z,97312.00
2024-04-25T16:47:21.106Z,97320.22
2024-04-25T16:52:24.480Z,97299.16
2024-04-25T16:57:27.558Z,97292.78
2024-04-25T17:02:33.564Z,97355.28
2024-04-25T17:07:36.826Z,97384.59
2024-04-25T17:12:39.973Z,97363.63
2024-04-25T17:17:46.044Z,97363.19
2024-04-25T17:22:49.179Z,97354.81
2024-04-25T17:27:52.243Z,97332.91
2024-04-25T17:32:58.285Z,97329.75
2024-04-25T17:38:01.629Z,97324.44
2024-04-25T17:43:05.048Z,97320.78
2024-04-25T17:48:11.472Z,97263.56
2024-04-25T17:53:14.741Z,97298.19
2024-04-25T17:58:17.976Z,97284.66
2024-04-25T18:03:23.924Z,97285.31
2024-04-25T18:08:27.115Z,97303.50
2024-04-25T18:13:30.242Z,97269.59
2024-04-25T18:18:36.355Z,97272.63
2024-04-25T18:23:39.641Z,97275.91
2024-04-25T18:28:42.761Z,97260.13
2024-04-25T18:33:48.760Z,97247.78
2024-04-25T18:38:51.948Z,97252.97
2024-04-25T18:43:55.334Z,97239.81
2024-04-25T18:49:01.627Z,97243.59
2024-04-25T18:54:04.983Z,97225.34
2024-04-25T18:59:08.090Z,97223.53
2024-04-25T19:04:14.205Z,97216.66
2024-04-25T19:09:17.317Z,97207.38
2024-04-25T19:14:20.400Z,97197.22
2024-04-25T19:19:26.349Z,97187.50
2024-04-25T19:24:29.425Z,97184.75
2024-04-25T19:29:34.078Z,97198.50
2024-04-25T19:34:41.249Z,97209.34
2024-04-25T19:39:45.694Z,97198.69
2024-04-25T19:44:48.895Z,97205.28
2024-04-25T19:49:54.869Z,97185.19
2024-04-25T19:54:58.763Z,97203.63
2024-04-25T20:00:01.856Z,97193.50
2024-04-25T20:05:08.035Z,97201.31
2024-04-25T20:10:11.464Z,97191.84
2024-04-25T20:15:14.599Z,97169.59
2024-04-25T20:20:20.584Z,97160.31
2024-04-25T20:25:23.772Z,97175.72
2024-04-25T20:30:27.044Z,97159.41
2024-04-25T20:35:32.967Z,97143.09
2024-04-25T20:40:36.124Z,97132.50
2024-04-25T20:45:39.713Z,97120.03
2024-04-25T20:50:45.755Z,97096.03
2024-04-25T20:55:48.947Z,97082.91
2024-04-25T21:00:52.104Z,97076.69
2024-04-25T21:05:59.062Z,97067.59
2024-04-25T21:11:02.216Z,97045.63
2024-04-25T21:16:05.851Z,97059.31
2024-04-25T21:21:11.916Z,97033.09
2024-04-25T21:26:15.173Z,97021.16
2024-04-25T21:31:18.387Z,97038.97
2024-04-25T21:36:24.450Z,97047.88
2024-04-25T21:41:27.783Z,97030.28
2024-04-25T21:46:31.481Z,97018.03
2024-04-25T21:51:43.494Z,97011.38
2024-04-25T21:56:46.787Z,97012.41
2024-04-25T22:01:54.117Z,97009.66
2024-04-25T22:07:00.055Z,97014.19
2024-04-25T22:12:03.234Z,97005.72
2024-04-25T22:17:06.591Z,96988.59
2024-04-25T22:22:12.582Z,96992.44
2024-04-25T22:27:16.280Z,96979.72
2024-04-25T22:32:19.666Z,96993.41
2024-04-25T22:37:25.668Z,96974.28
2024-04-25T22:42:28.767Z,96999.25
2024-04-25T22:47:32.326Z,96959.00
2024-04-25T22:52:38.307Z,96938.84
2024-04-25T22:57:41.419Z,96948.72
2024-04-25T23:02:44.759Z,96941.06
2024-04-25T23:07:50.821Z,96950.69
2024-04-25T23:12:53.991Z,96945.84
2024-04-25T23:17:57.183Z,96935.81
2024-04-25T23:23:03.641Z,96933.56
2024-04-25T23:28:07.246Z,96936.16
2024-04-25T23:33:10.517Z,96930.69
2024-04-25T23:38:16.640Z,96932.59
2024-04-25T23:43:19.794Z,96915.31
2024-04-25T23:48:23.902Z,96910.63
2024-04-25T23:53:30.814Z,96885.03
2024-04-25T23:58:34.026Z,96866.38
